createdAt,value
2022-08-22T00:00:43.761Z,16.74
2022-08-22T00:02:41.796Z,21.43
2022-08-22T00:03:03.717Z,20.92
2022-08-22T00:05:36.871Z,16.74
2022-08-22T00:07:51.672Z,16.74
2022-08-22T00:10:01.539Z,16.74
2022-08-22T00:12:14.968Z,16.73
2022-08-22T00:14:25.072Z,16.72
2022-08-22T00:16:38.482Z,16.72
2022-08-22T00:18:50.864Z,16.73
2022-08-22T00:21:09.091Z,16.72
2022-08-22T00:23:18.372Z,16.72
2022-08-22T00:25:37.135Z,16.72
2022-08-22T00:27:50.138Z,16.72
2022-08-22T00:29:59.005Z,16.71
2022-08-22T00:32:11.943Z,16.69
2022-08-22T00:34:30.055Z,16.67
2022-08-22T00:36:39.528Z,16.67
2022-08-22T00:38:52.189Z,16.65
2022-08-22T00:41:03.716Z,16.65
2022-08-22T00:43:42.129Z,16.65
2022-08-22T00:46:18.515Z,16.63
2022-08-22T00:48:58.336Z,16.62
2022-08-22T00:51:48.314Z,16.58
2022-08-22T00:53:59.781Z,16.57
2022-08-22T00:56:28.410Z,16.55
2022-08-22T00:58:56.142Z,16.54
2022-08-22T01:01:16.493Z,16.53
2022-08-22T01:03:56.464Z,16.54
2022-08-22T01:06:18.654Z,16.52
2022-08-22T01:08:39.345Z,16.51
2022-08-22T01:10:56.207Z,16.52
2022-08-22T01:13:22.245Z,16.52
2022-08-22T01:15:30.504Z,16.53
2022-08-22T01:18:07.045Z,16.54
2022-08-22T01:20:45.074Z,16.52
2022-08-22T01:23:17.781Z,16.54
2022-08-22T01:26:04.291Z,16.52
2022-08-22T01:28:45.009Z,16.51
2022-08-22T01:31:22.757Z,16.51
2022-08-22T01:33:58.470Z,16.47
2022-08-22T01:36:22.818Z,16.44
2022-08-22T01:38:51.981Z,16.44
2022-08-22T01:41:20.091Z,16.42
2022-08-22T01:43:58.801Z,16.40
2022-08-22T01:46:24.914Z,16.37
2022-08-22T01:48:38.137Z,16.35
2022-08-22T01:50:46.985Z,16.33
2022-08-22T01:52:59.284Z,16.31
2022-08-22T01:55:11.222Z,16.30
2022-08-22T01:57:16.917Z,16.29
2022-08-22T01:59:34.088Z,16.28
2022-08-22T02:02:01.141Z,16.28
2022-08-22T02:04:11.104Z,16.28
2022-08-22T02:06:23.037Z,16.28
2022-08-22T02:08:38.772Z,16.29
2022-08-22T02:10:54.134Z,16.30
2022-08-22T02:13:08.264Z,16.29
2022-08-22T02:15:21.239Z,16.30
2022-08-22T02:17:32.130Z,16.29
2022-08-22T02:19:47.363Z,16.29
2022-08-22T02:21:58.054Z,16.29
2022-08-22T02:24:14.593Z,16.29
2022-08-22T02:26:25.615Z,16.30
2022-08-22T02:28:39.001Z,16.28
2022-08-22T02:30:52.035Z,16.29
2022-08-22T02:33:04.440Z,16.28
2022-08-22T02:35:18.666Z,16.26
2022-08-22T02:37:33.233Z,16.27
2022-08-22T02:39:44.383Z,16.28
2022-08-22T02:41:56.285Z,16.28
2022-08-22T02:44:13.325Z,16.28
2022-08-22T02:46:28.431Z,16.27
2022-08-22T02:48:42.242Z,16.26
2022-08-22T02:50:53.121Z,16.24
2022-08-22T02:53:05.334Z,16.23
2022-08-22T02:55:16.109Z,16.23
2022-08-22T02:57:30.142Z,16.23
2022-08-22T02:59:57.684Z,16.22
2022-08-22T03:02:36.586Z,16.21
2022-08-22T03:04:51.951Z,16.20
2022-08-22T03:07:23.072Z,16.19
2022-08-22T03:09:33.724Z,16.17
2022-08-22T03:11:44.299Z,16.16
2022-08-22T03:14:01.095Z,16.15
2022-08-22T03:16:16.347Z,16.14
2022-08-22T03:18:27.585Z,16.12
2022-08-22T03:20:47.148Z,16.12
2022-08-22T03:22:58.759Z,16.10
2022-08-22T03:25:12.614Z,16.08
2022-08-22T03:27:23.255Z,16.08
2022-08-22T03:29:45.008Z,16.06
2022-08-22T03:32:08.505Z,16.05
2022-08-22T03:34:23.959Z,16.03
2022-08-22T03:36:30.551Z,16.02
2022-08-22T03:38:54.578Z,16.00
2022-08-22T03:41:30.293Z,15.98
2022-08-22T03:43:59.179Z,15.96
2022-08-22T03:46:34.998Z,15.95
2022-08-22T03:49:12.193Z,15.94
2022-08-22T03:51:29.474Z,15.93
2022-08-22T03:53:56.514Z,15.92
2022-08-22T03:56:26.521Z,15.91
2022-08-22T03:58:53.975Z,15.88
2022-08-22T04:01:26.222Z,15.84
2022-08-22T04:04:10.374Z,15.84
2022-08-22T04:06:56.342Z,15.83
2022-08-22T04:09:29.085Z,15.83
2022-08-22T04:11:51.308Z,15.82
2022-08-22T04:14:13.161Z,15.81
2022-08-22T04:16:45.066Z,15.83
2022-08-22T04:19:11.154Z,15.82
2022-08-22T04:21:39.278Z,15.80
2022-08-22T04:24:14.440Z,15.80
2022-08-22T04:26:33.347Z,15.79
2022-08-22T04:28:42.073Z,15.80
2022-08-22T04:30:52.194Z,15.79
2022-08-22T04:33:05.195Z,15.79
2022-08-22T04:35:24.228Z,15.80
2022-08-22T04:37:36.384Z,15.79
2022-08-22T04:39:47.341Z,15.78
2022-08-22T04:42:03.521Z,15.76
2022-08-22T04:44:22.569Z,15.73
2022-08-22T04:46:37.013Z,15.70
2022-08-22T04:48:47.951Z,15.69
2022-08-22T04:50:58.290Z,15.67
2022-08-22T04:53:17.151Z,15.65
2022-08-22T04:55:32.538Z,15.63
2022-08-22T04:57:48.878Z,15.62
2022-08-22T04:59:57.896Z,15.61
2022-08-22T05:02:04.415Z,15.59
2022-08-22T05:04:12.150Z,15.59
2022-08-22T05:06:19.437Z,15.58
2022-08-22T05:08:31.161Z,15.57
2022-08-22T05:10:38.468Z,15.56
2022-08-22T05:12:47.991Z,15.54
2022-08-22T05:14:58.558Z,15.52
2022-08-22T05:17:06.035Z,15.50
2022-08-22T05:19:16.901Z,15.49
2022-08-22T05:21:27.292Z,15.48
2022-08-22T05:23:38.710Z,15.45
2022-08-22T05:25:45.468Z,15.46
2022-08-22T05:27:56.408Z,15.45
2022-08-22T05:30:05.828Z,15.44
2022-08-22T05:32:19.146Z,15.44
2022-08-22T05:34:31.905Z,15.45
2022-08-22T05:36:44.443Z,15.44
2022-08-22T05:38:54.564Z,15.45
2022-08-22T05:41:05.627Z,15.44
2022-08-22T05:43:15.323Z,15.44
2022-08-22T05:45:21.475Z,15.45
2022-08-22T05:47:35.200Z,15.45
2022-08-22T05:49:49.649Z,15.47
2022-08-22T05:52:07.253Z,15.48
2022-08-22T05:54:19.397Z,15.51
2022-08-22T05:56:37.415Z,15.53
2022-08-22T05:58:54.422Z,15.55
2022-08-22T06:01:08.797Z,15.57
2022-08-22T06:03:18.780Z,15.58
2022-08-22T06:05:27.375Z,15.60
2022-08-22T06:07:40.278Z,15.61
2022-08-22T06:10:07.622Z,15.63
2022-08-22T06:12:21.854Z,15.65
2022-08-22T06:14:38.604Z,15.66
2022-08-22T06:16:50.004Z,15.66
2022-08-22T06:18:56.203Z,15.65
2022-08-22T06:21:03.689Z,15.64
2022-08-22T06:23:17.144Z,15.64
2022-08-22T06:25:26.288Z,15.64
2022-08-22T06:27:31.475Z,15.65
2022-08-22T06:29:40.759Z,15.65
2022-08-22T06:31:49.900Z,15.66
2022-08-22T06:34:00.957Z,15.69
2022-08-22T06:36:12.323Z,15.71
2022-08-22T06:38:22.353Z,15.73
2022-08-22T06:40:29.461Z,15.76
2022-08-22T06:42:38.335Z,15.78
2022-08-22T06:44:47.455Z,15.81
2022-08-22T06:46:56.088Z,15.82
2022-08-22T06:49:02.801Z,15.85
2022-08-22T06:51:08.769Z,15.87
2022-08-22T06:53:18.363Z,15.90
2022-08-22T06:55:25.123Z,15.90
2022-08-22T06:57:34.727Z,15.93
2022-08-22T06:59:42.036Z,15.95
2022-08-22T07:01:52.361Z,15.97
2022-08-22T07:04:08.990Z,15.98
2022-08-22T07:06:18.611Z,16.00
2022-08-22T07:08:25.364Z,16.00
2022-08-22T07:10:30.552Z,16.00
2022-08-22T07:12:37.213Z,16.00
2022-08-22T07:14:46.326Z,15.99
2022-08-22T07:16:58.289Z,16.00
2022-08-22T07:19:03.368Z,16.00
2022-08-22T07:21:08.160Z,16.03
2022-08-22T07:23:24.828Z,16.07
2022-08-22T07:25:31.139Z,16.11
2022-08-22T07:27:51.282Z,16.16
2022-08-22T07:30:10.035Z,16.23
2022-08-22T07:32:21.055Z,16.30
2022-08-22T07:34:39.087Z,16.35
2022-08-22T07:36:49.337Z,16.41
2022-08-22T07:39:11.097Z,16.43
2022-08-22T07:41:20.811Z,16.46
2022-08-22T07:43:31.897Z,16.49
2022-08-22T07:45:43.416Z,16.49
2022-08-22T07:48:01.433Z,16.49
2022-08-22T07:50:14.526Z,16.51
2022-08-22T07:52:20.083Z,16.51
2022-08-22T07:54:31.858Z,16.54
2022-08-22T07:56:48.771Z,16.58
2022-08-22T07:58:57.209Z,16.61
2022-08-22T08:01:03.056Z,16.64
2022-08-22T08:03:09.663Z,16.68
2022-08-22T08:05:15.557Z,16.73
2022-08-22T08:07:28.087Z,16.78
2022-08-22T08:09:37.703Z,16.84
2022-08-22T08:11:44.531Z,16.90
2022-08-22T08:13:57.393Z,16.94
2022-08-22T08:16:05.025Z,16.98
2022-08-22T08:18:13.754Z,16.99
2022-08-22T08:20:25.021Z,17.00
2022-08-22T08:22:31.054Z,17.01
2022-08-22T08:24:40.266Z,17.02
2022-08-22T08:26:54.490Z,17.03
2022-08-22T08:29:00.777Z,17.03
2022-08-22T08:31:14.909Z,17.05
2022-08-22T08:33:25.156Z,17.06
2022-08-22T08:35:42.418Z,17.05
2022-08-22T08:38:07.062Z,17.03
2022-08-22T08:40:34.356Z,16.96
2022-08-22T08:42:57.835Z,16.91
2022-08-22T08:45:23.747Z,16.86
2022-08-22T08:47:40.857Z,16.83
2022-08-22T08:50:02.937Z,16.82
2022-08-22T08:52:40.487Z,16.77
2022-08-22T08:55:19.649Z,16.70
2022-08-22T08:57:43.536Z,16.66
2022-08-22T09:00:00.551Z,16.59
2022-08-22T09:02:20.343Z,16.55
2022-08-22T09:04:52.558Z,16.51
2022-08-22T09:07:30.545Z,16.48
2022-08-22T09:10:00.967Z,16.47
2022-08-22T09:12:20.463Z,16.45
2022-08-22T09:14:44.502Z,16.45
2022-08-22T09:17:14.501Z,16.43
2022-08-22T09:19:56.608Z,16.43
2022-08-22T09:22:24.732Z,16.45
2022-08-22T09:24:54.032Z,16.50
2022-08-22T09:27:02.512Z,16.54
2022-08-22T09:29:31.572Z,16.57
2022-08-22T09:31:51.502Z,16.61
2022-08-22T09:34:05.222Z,16.63
2022-08-22T09:36:18.737Z,16.64
2022-08-22T09:38:48.044Z,16.65
2022-08-22T09:41:02.322Z,16.64
2022-08-22T09:43:11.730Z,16.64
2022-08-22T09:45:48.052Z,16.67
2022-08-22T09:48:02.251Z,16.68
2022-08-22T09:50:19.824Z,16.71
2022-08-22T09:52:50.785Z,16.72
2022-08-22T09:55:04.319Z,16.72
2022-08-22T09:57:28.114Z,16.71
2022-08-22T09:59:50.540Z,16.68
2022-08-22T10:02:02.584Z,16.66
2022-08-22T10:04:43.142Z,16.63
2022-08-22T10:06:59.234Z,16.62
2022-08-22T10:09:09.998Z,16.62
2022-08-22T10:11:26.139Z,16.63
2022-08-22T10:13:43.930Z,16.63
2022-08-22T10:15:55.592Z,16.64
2022-08-22T10:18:26.325Z,16.66
2022-08-22T10:20:37.935Z,16.69
2022-08-22T10:22:57.047Z,16.68
2022-08-22T10:25:19.743Z,16.68
2022-08-22T10:27:42.108Z,16.68
2022-08-22T10:30:04.234Z,16.66
2022-08-22T10:32:25.185Z,16.60
2022-08-22T10:34:37.090Z,16.55
2022-08-22T10:36:56.930Z,16.51
2022-08-22T10:39:10.950Z,16.49
2022-08-22T10:41:27.968Z,16.50
2022-08-22T10:43:44.085Z,16.49
2022-08-22T10:45:54.801Z,16.51
2022-08-22T10:48:37.033Z,16.53
2022-08-22T10:50:47.869Z,16.55
2022-08-22T10:52:57.445Z,16.57
2022-08-22T10:55:12.672Z,16.62
2022-08-22T10:57:29.467Z,16.63
2022-08-22T10:59:45.647Z,16.63
2022-08-22T11:02:14.306Z,16.63
2022-08-22T11:04:38.194Z,16.65
2022-08-22T11:06:51.107Z,16.67
2022-08-22T11:09:13.826Z,16.69
2022-08-22T11:11:36.689Z,16.71
2022-08-22T11:13:51.345Z,16.73
2022-08-22T11:16:04.399Z,16.74
2022-08-22T11:18:25.461Z,16.77
2022-08-22T11:20:36.946Z,16.81
2022-08-22T11:22:49.412Z,16.84
2022-08-22T11:25:13.225Z,16.89
2022-08-22T11:27:37.883Z,16.96
2022-08-22T11:29:56.964Z,17.03
2022-08-22T11:32:11.580Z,17.11
2022-08-22T11:34:30.701Z,17.17
2022-08-22T11:36:40.168Z,17.22
2022-08-22T11:38:59.114Z,17.24
2022-08-22T11:41:15.184Z,17.25
2022-08-22T11:43:37.241Z,17.24
2022-08-22T11:45:47.014Z,17.28
2022-08-22T11:48:01.944Z,17.31
2022-08-22T11:50:15.805Z,17.32
2022-08-22T11:52:51.759Z,17.32
2022-08-22T11:55:21.547Z,17.33
2022-08-22T11:57:37.697Z,17.30
2022-08-22T12:00:01.712Z,17.31
2022-08-22T12:02:37.319Z,17.34
2022-08-22T12:04:46.212Z,17.35
2022-08-22T12:07:01.958Z,17.31
2022-08-22T12:09:40.993Z,17.30
2022-08-22T12:11:56.524Z,17.29
2022-08-22T12:14:06.848Z,17.31
2022-08-22T12:16:19.709Z,17.30
2022-08-22T12:18:47.780Z,17.31
2022-08-22T12:21:25.882Z,17.33
2022-08-22T12:23:50.239Z,17.33
2022-08-22T12:26:11.441Z,17.34
2022-08-22T12:28:30.161Z,17.34
2022-08-22T12:30:41.773Z,17.37
2022-08-22T12:33:20.759Z,17.37
2022-08-22T12:35:41.968Z,17.39
2022-08-22T12:37:54.772Z,17.43
2022-08-22T12:40:26.343Z,17.46
2022-08-22T12:42:49.596Z,17.52
2022-08-22T12:45:12.998Z,17.61
2022-08-22T12:47:35.065Z,17.66
2022-08-22T12:49:57.010Z,17.69
2022-08-22T12:52:19.617Z,17.75
2022-08-22T12:54:45.691Z,17.86
2022-08-22T12:56:59.242Z,17.92
2022-08-22T12:59:24.579Z,17.98
2022-08-22T13:01:36.518Z,18.10
2022-08-22T13:03:50.074Z,18.18
2022-08-22T13:06:00.327Z,18.20
2022-08-22T13:08:09.198Z,18.26
2022-08-22T13:10:40.883Z,18.34
2022-08-22T13:12:50.049Z,18.40
2022-08-22T13:14:58.673Z,18.35
2022-08-22T13:17:23.637Z,18.27
2022-08-22T13:19:31.909Z,18.15
2022-08-22T13:21:44.041Z,18.04
2022-08-22T13:23:54.197Z,17.98
2022-08-22T13:26:08.632Z,17.94
2022-08-22T13:28:14.972Z,17.89
2022-08-22T13:30:24.045Z,17.86
2022-08-22T13:32:35.961Z,17.81
2022-08-22T13:34:49.015Z,17.78
2022-08-22T13:36:59.303Z,17.75
2022-08-22T13:39:22.669Z,17.68
2022-08-22T13:41:31.469Z,17.64
2022-08-22T13:43:53.512Z,17.60
2022-08-22T13:46:02.659Z,17.55
2022-08-22T13:48:12.394Z,17.51
2022-08-22T13:50:21.933Z,17.49
2022-08-22T13:52:32.921Z,17.49
2022-08-22T13:54:54.728Z,17.51
2022-08-22T13:57:09.059Z,17.53
2022-08-22T13:59:47.460Z,17.54
2022-08-22T14:01:56.285Z,17.51
2022-08-22T14:04:17.766Z,17.47
2022-08-22T14:06:41.487Z,17.41
2022-08-22T14:08:50.668Z,17.37
2022-08-22T14:11:03.480Z,17.35
2022-08-22T14:13:41.138Z,17.33
2022-08-22T14:15:46.304Z,17.32
2022-08-22T14:17:55.712Z,17.32
2022-08-22T14:20:11.157Z,17.35
2022-08-22T14:22:21.445Z,17.37
2022-08-22T14:24:45.646Z,17.35
2022-08-22T14:26:57.886Z,17.32
2022-08-22T14:29:12.139Z,17.32
2022-08-22T14:31:25.791Z,17.33
2022-08-22T14:33:37.088Z,17.35
2022-08-22T14:35:52.714Z,17.38
2022-08-22T14:38:17.335Z,17.42
2022-08-22T14:40:27.570Z,17.47
2022-08-22T14:42:44.330Z,17.48
2022-08-22T14:45:06.730Z,17.52
2022-08-22T14:47:54.708Z,17.54
2022-08-22T14:49:53.472Z,17.57
2022-08-22T14:52:04.204Z,17.56
2022-08-22T14:54:14.018Z,17.54
2022-08-22T14:56:29.789Z,17.50
2022-08-22T14:58:38.011Z,17.45
2022-08-22T15:00:48.038Z,17.41
2022-08-22T15:03:05.432Z,17.38
2022-08-22T15:05:20.502Z,17.36
2022-08-22T15:07:28.257Z,17.34
2022-08-22T15:09:36.653Z,17.33
2022-08-22T15:11:49.374Z,17.33
2022-08-22T15:14:00.276Z,17.37
2022-08-22T15:16:15.815Z,17.39
2022-08-22T15:18:35.540Z,17.40
2022-08-22T15:20:45.432Z,17.40
2022-08-22T15:22:56.385Z,17.40
2022-08-22T15:25:06.496Z,17.39
2022-08-22T15:27:17.201Z,17.39
2022-08-22T15:29:25.956Z,17.38
2022-08-22T15:31:31.302Z,17.40
2022-08-22T15:33:40.208Z,17.38
2022-08-22T15:35:49.093Z,17.33
2022-08-22T15:38:00.306Z,17.28
2022-08-22T15:40:31.625Z,17.22
2022-08-22T15:42:40.669Z,17.14
2022-08-22T15:44:53.518Z,17.07
2022-08-22T15:47:12.038Z,17.01
2022-08-22T15:49:31.960Z,16.95
2022-08-22T15:51:46.354Z,16.90
2022-08-22T15:54:24.983Z,16.86
2022-08-22T15:56:35.046Z,16.84
2022-08-22T15:58:48.774Z,16.83
2022-08-22T16:01:19.152Z,16.84
2022-08-22T16:03:32.029Z,16.83
2022-08-22T16:05:46.536Z,16.83
2022-08-22T16:08:00.586Z,16.85
2022-08-22T16:10:10.144Z,16.86
2022-08-22T16:12:30.465Z,16.87
2022-08-22T16:14:51.213Z,16.87
2022-08-22T16:17:02.437Z,16.87
2022-08-22T16:19:22.742Z,16.87
2022-08-22T16:22:09.365Z,16.87
2022-08-22T16:24:55.048Z,16.85
2022-08-22T16:27:15.048Z,16.83
2022-08-22T16:29:41.414Z,16.81
2022-08-22T16:32:01.437Z,16.81
2022-08-22T16:34:38.253Z,16.79
2022-08-22T16:36:51.910Z,16.79
2022-08-22T16:38:58.458Z,16.76
2022-08-22T16:41:03.715Z,16.75
2022-08-22T16:43:18.679Z,16.73
2022-08-22T16:45:34.819Z,16.67
2022-08-22T16:47:42.928Z,16.62
2022-08-22T16:50:26.023Z,16.58
2022-08-22T16:52:54.964Z,16.55
2022-08-22T16:55:02.547Z,16.50
2022-08-22T16:57:20.378Z,16.46
2022-08-22T16:59:47.731Z,16.43
2022-08-22T17:02:17.632Z,16.42
2022-08-22T17:04:33.800Z,16.41
2022-08-22T17:06:56.478Z,16.42
2022-08-22T17:09:20.653Z,16.40
2022-08-22T17:11:40.556Z,16.37
2022-08-22T17:14:09.385Z,16.35
2022-08-22T17:16:31.777Z,16.35
2022-08-22T17:18:58.165Z,16.36
2022-08-22T17:21:10.931Z,16.39
2022-08-22T17:23:27.144Z,16.40
2022-08-22T17:25:47.867Z,16.42
2022-08-22T17:28:05.016Z,16.43
2022-08-22T17:30:12.877Z,16.44
2022-08-22T17:32:29.055Z,16.47
2022-08-22T17:34:42.249Z,16.50
2022-08-22T17:37:01.372Z,16.50
2022-08-22T17:39:29.094Z,16.53
2022-08-22T17:41:46.568Z,16.55
2022-08-22T17:44:02.967Z,16.55
2022-08-22T17:46:19.412Z,16.56
2022-08-22T17:48:28.845Z,16.57
2022-08-22T17:50:42.909Z,16.57
2022-08-22T17:52:55.109Z,16.59
2022-08-22T17:55:05.808Z,16.61
2022-08-22T17:57:22.429Z,16.61
2022-08-22T17:59:31.425Z,16.62
2022-08-22T18:01:47.260Z,16.62
2022-08-22T18:04:01.304Z,16.64
2022-08-22T18:06:10.311Z,16.65
2022-08-22T18:11:00.006Z,16.68
2022-08-22T18:13:10.133Z,16.67
2022-08-22T18:15:25.348Z,16.67
2022-08-22T18:17:37.482Z,16.67
2022-08-22T18:19:52.537Z,16.67
2022-08-22T18:22:01.640Z,16.66
2022-08-22T18:24:20.442Z,16.65
2022-08-22T18:26:33.665Z,16.62
2022-08-22T18:28:50.740Z,16.63
2022-08-22T18:31:01.495Z,16.62
2022-08-22T18:33:18.225Z,16.61
2022-08-22T18:35:28.967Z,16.59
2022-08-22T18:37:49.886Z,16.58
2022-08-22T18:39:59.429Z,16.56
2022-08-22T18:42:09.197Z,16.57
2022-08-22T18:44:21.263Z,16.56
2022-08-22T18:46:45.158Z,16.57
2022-08-22T18:49:14.075Z,16.57
2022-08-22T18:51:24.770Z,16.55
2022-08-22T18:53:45.412Z,16.55
2022-08-22T18:55:56.658Z,16.54
2022-08-22T18:58:34.340Z,16.54
2022-08-22T19:00:57.716Z,16.53
2022-08-22T19:03:19.425Z,16.50
2022-08-22T19:05:34.618Z,16.47
2022-08-22T19:08:03.068Z,16.46
2022-08-22T19:10:41.379Z,16.43
2022-08-22T19:13:09.786Z,16.40
2022-08-22T19:15:39.988Z,16.38
2022-08-22T19:18:22.816Z,16.35
2022-08-22T19:20:30.932Z,16.34
2022-08-22T19:22:37.623Z,16.32
2022-08-22T19:25:14.050Z,16.31
2022-08-22T19:27:31.197Z,16.30
2022-08-22T19:30:00.350Z,16.28
2022-08-22T19:32:12.930Z,16.27
2022-08-22T19:34:34.801Z,16.26
2022-08-22T19:36:39.767Z,16.24
2022-08-22T19:39:01.563Z,16.23
2022-08-22T19:41:06.789Z,16.23
2022-08-22T19:43:30.900Z,16.23
2022-08-22T19:45:41.442Z,16.23
2022-08-22T19:47:58.378Z,16.23
2022-08-22T19:50:10.304Z,16.23
2022-08-22T19:52:26.839Z,16.26
2022-08-22T19:54:34.764Z,16.25
2022-08-22T19:56:55.408Z,16.24
2022-08-22T19:59:15.367Z,16.25
2022-08-22T20:01:43.826Z,16.25
2022-08-22T20:03:54.687Z,16.27
2022-08-22T20:06:22.111Z,16.27
2022-08-22T20:08:51.207Z,16.27
2022-08-22T20:11:11.141Z,16.27
2022-08-22T20:13:23.655Z,16.27
2022-08-22T20:15:30.733Z,16.28
2022-08-22T20:17:43.402Z,16.28
2022-08-22T20:22:25.497Z,16.32
2022-08-22T20:24:39.841Z,16.34
2022-08-22T20:27:12.294Z,16.34
2022-08-22T20:29:16.092Z,16.34
2022-08-22T20:31:25.502Z,16.35
2022-08-22T20:33:34.444Z,16.35
2022-08-22T20:35:43.431Z,16.35
2022-08-22T20:38:06.584Z,16.34
2022-08-22T20:40:55.262Z,16.35
2022-08-22T20:42:52.646Z,16.37
2022-08-22T20:44:58.515Z,16.36
2022-08-22T20:47:08.076Z,16.35
2022-08-22T20:49:21.323Z,16.36
2022-08-22T20:51:29.561Z,16.37
2022-08-22T20:53:35.664Z,16.35
2022-08-22T20:55:51.814Z,16.36
2022-08-22T20:57:59.581Z,16.37
2022-08-22T21:00:11.124Z,16.40
2022-08-22T21:02:20.442Z,16.41
2022-08-22T21:04:30.859Z,16.41
2022-08-22T21:06:35.659Z,16.39
2022-08-22T21:08:42.034Z,16.39
2022-08-22T21:10:59.086Z,16.37
2022-08-22T21:13:07.737Z,16.36
2022-08-22T21:15:12.684Z,16.35
2022-08-22T21:17:27.246Z,16.34
2022-08-22T21:19:32.866Z,16.34
2022-08-22T21:21:37.763Z,16.33
2022-08-22T21:23:45.632Z,16.33
2022-08-22T21:25:57.114Z,16.32
2022-08-22T21:28:02.021Z,16.32
2022-08-22T21:30:11.363Z,16.33
2022-08-22T21:32:31.656Z,16.34
2022-08-22T21:34:45.479Z,16.34
2022-08-22T21:36:53.366Z,16.35
2022-08-22T21:39:01.615Z,16.35
2022-08-22T21:41:08.789Z,16.36
2022-08-22T21:43:30.543Z,16.36
2022-08-22T21:45:42.417Z,16.35
2022-08-22T21:47:47.172Z,16.35
2022-08-22T21:50:13.605Z,16.35
2022-08-22T21:52:28.909Z,16.36
2022-08-22T21:54:38.537Z,16.35
2022-08-22T21:56:43.307Z,16.35
2022-08-22T21:58:50.848Z,16.35
2022-08-22T22:00:59.245Z,16.36
2022-08-22T22:03:04.038Z,16.38
2022-08-22T22:05:14.290Z,16.41
2022-08-22T22:07:19.283Z,16.43
2022-08-22T22:09:24.159Z,16.44
2022-08-22T22:11:29.091Z,16.45
2022-08-22T22:13:33.959Z,16.45
2022-08-22T22:15:46.713Z,16.44
2022-08-22T22:17:51.746Z,16.45
2022-08-22T22:19:56.438Z,16.45
2022-08-22T22:22:01.148Z,16.44
2022-08-22T22:24:06.362Z,16.44
2022-08-22T22:26:11.661Z,16.44
2022-08-22T22:28:18.496Z,16.44
2022-08-22T22:30:23.220Z,16.43
2022-08-22T22:32:27.935Z,16.43
2022-08-22T22:34:32.623Z,16.43
2022-08-22T22:36:37.699Z,16.44
2022-08-22T22:38:42.666Z,16.46
2022-08-22T22:40:49.202Z,16.45
2022-08-22T22:42:53.806Z,16.48
2022-08-22T22:44:58.592Z,16.49
2022-08-22T22:47:04.296Z,16.49
2022-08-22T22:49:11.950Z,16.49
2022-08-22T22:51:16.692Z,16.50
2022-08-22T22:53:33.675Z,16.51
2022-08-22T22:55:47.008Z,16.50
2022-08-22T22:58:08.099Z,16.50
2022-08-22T23:00:16.840Z,16.49
2022-08-22T23:02:22.745Z,16.50
2022-08-22T23:04:27.815Z,16.51
2022-08-22T23:06:33.010Z,16.52
2022-08-22T23:08:37.831Z,16.54
2022-08-22T23:10:42.723Z,16.55
2022-08-22T23:12:47.328Z,16.49
2022-08-22T23:14:52.203Z,16.43
2022-08-22T23:16:57.711Z,16.35
2022-08-22T23:19:07.012Z,16.27
2022-08-22T23:21:17.813Z,16.21
2022-08-22T23:23:22.485Z,16.14
2022-08-22T23:25:27.312Z,16.08
2022-08-22T23:27:32.142Z,16.05
2022-08-22T23:29:37.546Z,16.00
2022-08-22T23:31:50.865Z,15.97
2022-08-22T23:33:56.216Z,15.94
2022-08-22T23:36:01.426Z,15.92
2022-08-22T23:38:06.170Z,15.91
2022-08-22T23:40:12.449Z,15.89
2022-08-22T23:42:18.792Z,15.88
2022-08-22T23:44:26.372Z,15.87
2022-08-22T23:46:31.245Z,15.85
2022-08-22T23:48:37.300Z,15.86
2022-08-22T23:50:41.990Z,15.85
2022-08-22T23:52:46.955Z,15.82
2022-08-22T23:54:54.637Z,15.82
2022-08-22T23:57:02.743Z,15.82
2022-08-22T23:59:18.767Z,15.81
